Time;durP1;ratioP1;P1;durP2;ratioP2;P2;SDS_P1;SDS_P2;PMS_P1;PMS_P2;Temp;Humidity;BMP_temperature;BMP_pressure;BME280_temperature;BME280_humidity;BME280_pressure;Samples;Min_cycle;Max_cycle;Signal;HPM_P1;HPM_P2
2022/01/23 00:01:55;;;;;;;1.75;1.05;;;25.10;64.80;;;;;;4157091;28;20106;-77
2022/01/23 00:04:18;;;;;;;1.58;1.00;;;25.10;64.90;;;;;;4159514;28;20053;-81
2022/01/23 00:06:40;;;;;;;1.77;1.00;;;25.10;64.90;;;;;;4164358;28;20033;-76
2022/01/23 00:09:03;;;;;;;4.32;0.80;;;25.10;64.90;;;;;;4159600;28;20797;-82
2022/01/23 00:11:28;;;;;;;1.40;0.82;;;25.10;64.90;;;;;;4160134;28;20044;-86
2022/01/23 00:19:06;;;;;;;3.65;1.05;;;25.10;65.00;;;;;;4156830;28;20498;-79
2022/01/23 00:21:29;;;;;;;2.03;0.70;;;25.10;64.90;;;;;;4157651;28;20036;-79
2022/01/23 00:31:36;;;;;;;2.03;0.63;;;25.20;64.80;;;;;;4158250;28;20029;-82
2022/01/23 00:33:59;;;;;;;2.47;0.90;;;25.20;64.70;;;;;;4159077;28;20091;-83
2022/01/23 00:36:23;;;;;;;0.70;0.50;;;25.20;64.70;;;;;;4145533;28;20486;-82
2022/01/23 00:38:45;;;;;;;1.98;0.82;;;25.20;64.70;;;;;;4158168;28;20780;-78
2022/01/23 00:41:08;;;;;;;1.27;0.60;;;25.20;64.70;;;;;;4159040;28;20772;-83
2022/01/23 00:43:32;;;;;;;2.13;0.80;;;25.20;64.20;;;;;;4158794;28;20033;-83
2022/01/23 00:46:48;;;;;;;1.80;0.80;;;25.20;64.10;;;;;;4156864;28;20499;-84
2022/01/23 00:48:49;;;;;;;1.15;0.70;;;25.20;64.20;;;;;;4156045;28;20152;-84
2022/01/23 00:51:12;;;;;;;3.15;0.90;;;25.20;64.80;;;;;;4158156;28;20044;-79
2022/01/23 00:53:34;;;;;;;2.10;0.52;;;25.20;65.10;;;;;;4160384;28;20091;-86
2022/01/23 00:55:58;;;;;;;1.40;0.95;;;25.20;65.30;;;;;;4164189;28;20133;-79
2022/01/23 00:58:20;;;;;;;1.45;0.80;;;25.20;65.60;;;;;;4162269;28;20052;-78
2022/01/23 01:00:43;;;;;;;1.85;0.80;;;25.20;66.00;;;;;;4156284;28;20440;-74
2022/01/23 01:03:06;;;;;;;1.27;0.63;;;25.20;65.90;;;;;;4157451;28;20033;-75
2022/01/23 01:05:30;;;;;;;1.80;0.70;;;25.20;65.50;;;;;;4155387;28;20037;-76
2022/01/23 01:07:53;;;;;;;1.80;0.80;;;25.20;65.60;;;;;;4154368;28;20283;-80
2022/01/23 01:10:23;;;;;;;1.75;0.68;;;25.20;65.50;;;;;;4159153;28;20048;-78
2022/01/23 01:12:47;;;;;;;1.50;0.68;;;25.20;66.00;;;;;;4163526;28;20045;-82
2022/01/23 01:30:12;;;;;;;1.60;0.80;;;25.20;65.80;;;;;;4164647;28;20200;-76
2022/01/23 01:31:23;;;;;;;1.77;0.82;;;25.20;66.60;;;;;;4170922;28;20029;-81
2022/01/23 01:33:51;;;;;;;2.20;0.93;;;25.20;66.70;;;;;;4165569;28;20103;-83
2022/01/23 01:36:26;;;;;;;1.45;0.90;;;25.20;66.50;;;;;;4161571;28;20118;-79
2022/01/23 01:38:49;;;;;;;1.45;0.70;;;25.30;66.70;;;;;;4162768;28;20037;-80
2022/01/23 01:41:12;;;;;;;2.10;0.77;;;25.20;66.40;;;;;;4161515;28;20041;-77
2022/01/23 01:43:35;;;;;;;2.92;0.80;;;25.30;66.10;;;;;;4160048;28;20048;-80
2022/01/23 01:45:57;;;;;;;2.70;1.40;;;25.30;65.50;;;;;;4159077;28;20506;-81
2022/01/23 01:48:24;;;;;;;1.23;0.80;;;25.30;65.80;;;;;;4160337;28;20152;-85
2022/01/23 01:50:47;;;;;;;2.67;1.20;;;25.30;65.90;;;;;;4155034;28;20042;-79
2022/01/23 01:53:11;;;;;;;2.90;1.38;;;25.20;66.00;;;;;;4157778;28;20422;-78
2022/01/23 01:55:40;;;;;;;5.10;1.48;;;25.30;65.90;;;;;;4157798;28;20553;-81
2022/01/23 01:58:04;;;;;;;3.05;1.25;;;25.30;65.80;;;;;;4153859;28;20037;-81
2022/01/23 02:03:19;;;;;;;5.03;1.75;;;25.30;65.30;;;;;;4159749;28;20041;-78
2022/01/23 02:08:27;;;;;;;4.05;1.23;;;25.30;65.30;;;;;;4158894;28;20045;-78
2022/01/23 02:10:53;;;;;;;4.40;1.67;;;25.30;64.60;;;;;;4156578;28;20477;-77
2022/01/23 02:13:20;;;;;;;2.63;1.38;;;25.40;64.60;;;;;;4150125;28;20034;-86
2022/01/23 02:24:20;;;;;;;3.85;1.48;;;25.40;64.80;;;;;;4154676;28;20407;-89
2022/01/23 02:51:15;;;;;;;1.60;0.90;;;25.60;64.00;;;;;;4161749;28;20091;-83
2022/01/23 02:56:11;;;;;;;2.35;0.80;;;25.50;63.70;;;;;;4159801;28;20049;-85
2022/01/23 02:58:47;;;;;;;0.75;0.60;;;25.60;63.90;;;;;;4158822;28;20040;-85
2022/01/23 03:01:15;;;;;;;1.45;0.65;;;25.60;63.80;;;;;;4154025;28;20041;-79
2022/01/23 03:03:43;;;;;;;2.05;0.73;;;25.60;63.90;;;;;;4140572;28;20450;-84
2022/01/23 03:06:22;;;;;;;1.77;0.98;;;25.60;63.60;;;;;;4156902;28;20171;-83
2022/01/23 03:14:25;;;;;;;1.50;0.70;;;25.70;63.70;;;;;;4157506;28;20088;-80
2022/01/23 03:30:52;;;;;;;1.83;0.63;;;25.70;63.50;;;;;;4154331;28;20049;-85
2022/01/23 03:32:45;;;;;;;1.92;0.63;;;25.80;63.50;;;;;;4154485;28;20029;-85
2022/01/23 03:35:08;;;;;;;2.45;0.73;;;25.80;63.10;;;;;;4158994;28;20037;-87
2022/01/23 03:37:30;;;;;;;2.70;0.50;;;25.80;63.00;;;;;;4159790;28;20049;-83
2022/01/23 03:39:53;;;;;;;1.75;0.55;;;25.80;63.30;;;;;;4154564;28;20033;-81
2022/01/23 03:42:15;;;;;;;1.00;0.52;;;25.80;63.00;;;;;;4162963;28;20045;-83
2022/01/23 03:44:41;;;;;;;0.77;0.50;;;25.80;63.00;;;;;;4160252;28;20121;-85
2022/01/23 03:49:35;;;;;;;0.55;0.40;;;25.90;62.90;;;;;;4153045;28;20763;-86
2022/01/23 03:52:10;;;;;;;0.45;0.40;;;25.90;62.90;;;;;;4156396;28;20447;-84
2022/01/23 03:54:33;;;;;;;0.50;0.30;;;25.90;62.60;;;;;;4156523;28;20080;-86
2022/01/23 03:56:59;;;;;;;0.50;0.47;;;25.90;62.60;;;;;;4152879;28;20868;-89
2022/01/23 03:59:21;;;;;;;0.77;0.40;;;26.00;62.60;;;;;;4154448;28;20048;-81
2022/01/23 04:01:44;;;;;;;0.77;0.50;;;26.00;62.40;;;;;;4155301;28;20037;-81
2022/01/23 04:04:19;;;;;;;1.35;0.50;;;26.00;62.10;;;;;;4157092;28;20093;-84
2022/01/23 04:06:41;;;;;;;0.50;0.50;;;26.00;62.30;;;;;;4157789;28;20091;-79
2022/01/23 04:09:04;;;;;;;1.17;0.50;;;26.00;62.00;;;;;;4144051;28;20039;-80
2022/01/23 04:11:26;;;;;;;1.05;0.50;;;26.00;61.30;;;;;;4157375;28;20045;-79
2022/01/23 04:14:00;;;;;;;1.00;0.40;;;26.00;61.40;;;;;;4158341;28;20037;-85
2022/01/23 04:19:11;;;;;;;0.38;0.30;;;26.10;61.10;;;;;;4150325;28;20049;-76
2022/01/23 04:34:58;;;;;;;1.65;0.40;;;26.20;61.50;;;;;;4148949;28;20423;-68
2022/01/23 04:45:34;;;;;;;1.38;0.50;;;26.50;60.20;;;;;;4145054;28;20120;-67
2022/01/23 05:01:43;;;;;;;1.23;0.70;;;26.70;58.90;;;;;;4147435;28;20143;-66
2022/01/23 05:04:17;;;;;;;0.50;0.50;;;26.70;58.50;;;;;;4152861;28;20095;-68
2022/01/23 05:09:20;;;;;;;0.98;0.57;;;26.80;59.00;;;;;;4148484;28;20053;-67
2022/01/23 05:11:49;;;;;;;0.98;0.57;;;26.90;58.60;;;;;;4155385;28;20041;-67
2022/01/23 05:14:11;;;;;;;1.13;0.60;;;26.90;58.70;;;;;;4149429;28;20030;-70
2022/01/23 05:16:36;;;;;;;1.75;0.43;;;26.90;58.60;;;;;;4151915;28;20077;-68
2022/01/23 05:18:59;;;;;;;1.08;0.70;;;27.00;58.60;;;;;;4153724;28;20047;-68
2022/01/23 05:24:04;;;;;;;1.08;0.52;;;27.10;58.70;;;;;;4151526;28;20451;-68
2022/01/23 05:26:26;;;;;;;2.70;0.60;;;27.10;58.60;;;;;;4150708;28;20101;-69
2022/01/23 05:28:49;;;;;;;1.80;0.63;;;27.20;58.60;;;;;;4151772;28;20427;-68
2022/01/23 05:31:11;;;;;;;1.75;0.60;;;27.20;58.50;;;;;;4151195;28;20739;-67
2022/01/23 05:33:34;;;;;;;2.22;0.60;;;27.20;58.40;;;;;;4153562;28;20037;-68
2022/01/23 05:35:56;;;;;;;1.17;0.55;;;27.20;58.30;;;;;;4154748;28;20119;-68
2022/01/23 05:38:19;;;;;;;1.35;0.77;;;27.30;58.50;;;;;;4151975;28;20943;-69
2022/01/23 05:40:43;;;;;;;0.90;0.50;;;27.30;58.80;;;;;;4160537;28;20113;-67
2022/01/23 05:43:05;;;;;;;1.55;0.45;;;27.30;58.60;;;;;;4161822;28;20057;-68
2022/01/23 05:45:28;;;;;;;1.33;0.35;;;27.40;58.70;;;;;;4155789;28;20041;-68
2022/01/23 05:47:50;;;;;;;1.77;0.60;;;27.40;58.70;;;;;;4157678;28;20570;-68
2022/01/23 05:50:13;;;;;;;1.75;0.63;;;27.50;58.70;;;;;;4157158;28;20726;-67
2022/01/23 05:52:36;;;;;;;1.42;0.60;;;27.50;58.80;;;;;;4157721;28;20501;-68
2022/01/23 05:54:59;;;;;;;0.63;0.30;;;27.50;58.70;;;;;;4156982;28;20049;-67
2022/01/23 05:57:21;;;;;;;1.88;0.60;;;27.50;58.70;;;;;;4153948;28;20105;-66
2022/01/23 05:59:44;;;;;;;2.65;0.57;;;27.50;58.80;;;;;;4156478;28;20045;-67
2022/01/23 06:02:10;;;;;;;1.00;0.40;;;27.50;58.80;;;;;;4156015;28;20045;-67
2022/01/23 06:04:33;;;;;;;2.80;0.60;;;27.50;59.50;;;;;;4152450;28;20373;-66
2022/01/23 06:06:57;;;;;;;0.88;0.57;;;27.50;59.00;;;;;;4157142;28;20046;-62
2022/01/23 06:09:21;;;;;;;3.15;0.80;;;27.50;59.10;;;;;;4156291;28;20056;-67
2022/01/23 06:11:44;;;;;;;2.17;0.57;;;27.50;59.20;;;;;;4156554;28;20100;-66
2022/01/23 06:14:10;;;;;;;2.63;0.75;;;27.50;59.30;;;;;;4158822;28;20073;-67
2022/01/23 06:16:33;;;;;;;0.75;0.38;;;27.40;59.30;;;;;;4158836;28;20041;-67
2022/01/23 06:18:55;;;;;;;1.00;0.65;;;27.40;59.20;;;;;;4144985;28;20034;-65
2022/01/23 06:21:20;;;;;;;3.03;0.68;;;27.40;59.40;;;;;;4157818;28;20075;-67
2022/01/23 06:23:55;;;;;;;1.50;0.75;;;27.40;59.40;;;;;;4172297;28;20033;-76
2022/01/23 06:26:19;;;;;;;2.00;0.60;;;27.30;59.50;;;;;;4176363;28;20518;-83
2022/01/23 06:28:58;;;;;;;2.22;0.90;;;27.30;59.30;;;;;;4171486;28;20037;-79
2022/01/23 06:31:20;;;;;;;1.35;0.70;;;27.30;59.50;;;;;;4173271;28;20029;-88
2022/01/23 06:33:46;;;;;;;2.10;0.73;;;27.30;59.60;;;;;;4152006;28;20038;-79
2022/01/23 06:36:11;;;;;;;3.58;0.70;;;27.30;59.70;;;;;;4148119;28;20049;-85
2022/01/23 06:38:38;;;;;;;1.77;0.73;;;27.30;59.30;;;;;;4162346;28;20351;-80
2022/01/23 06:41:04;;;;;;;2.40;0.73;;;27.30;59.40;;;;;;4156293;28;20045;-83
2022/01/23 06:43:26;;;;;;;0.85;0.47;;;27.30;59.40;;;;;;4160100;28;20549;-80
2022/01/23 06:45:52;;;;;;;1.30;0.50;;;27.30;59.30;;;;;;4155612;28;20038;-81
2022/01/23 06:48:17;;;;;;;1.40;0.63;;;27.30;58.60;;;;;;4156173;28;20529;-82
2022/01/23 06:50:42;;;;;;;1.83;0.75;;;27.30;58.70;;;;;;4158907;28;20704;-87
2022/01/23 06:53:04;;;;;;;1.40;0.60;;;27.30;58.80;;;;;;4154454;28;20099;-84
2022/01/23 06:55:30;;;;;;;3.38;0.60;;;27.30;58.90;;;;;;4164298;28;20041;-83
2022/01/23 06:57:57;;;;;;;2.33;0.70;;;27.30;59.30;;;;;;4152034;28;20042;-80
2022/01/23 07:00:22;;;;;;;1.27;0.60;;;27.30;59.10;;;;;;4158991;28;20038;-80
2022/01/23 07:02:45;;;;;;;1.48;0.63;;;27.30;58.90;;;;;;4157100;28;20168;-85
2022/01/23 07:05:11;;;;;;;1.95;0.52;;;27.30;58.80;;;;;;4157412;28;20040;-84
2022/01/23 07:07:39;;;;;;;0.88;0.40;;;27.30;58.50;;;;;;4152329;28;20099;-85
2022/01/23 07:10:01;;;;;;;1.42;0.68;;;27.30;58.70;;;;;;4160078;28;20143;-85
2022/01/23 07:12:30;;;;;;;0.75;0.40;;;27.30;58.90;;;;;;4158734;28;20538;-79
2022/01/23 07:14:56;;;;;;;1.48;0.43;;;27.20;58.90;;;;;;4162816;28;20132;-81
2022/01/23 07:17:21;;;;;;;3.53;0.70;;;27.20;58.80;;;;;;4161653;28;20447;-67
2022/01/23 07:19:44;;;;;;;0.90;0.40;;;27.20;59.00;;;;;;4158519;28;20111;-68
2022/01/23 07:22:10;;;;;;;1.85;0.50;;;27.20;59.30;;;;;;4156690;28;20049;-69
2022/01/23 07:24:33;;;;;;;1.63;0.77;;;27.20;59.30;;;;;;4157588;28;20639;-67
2022/01/23 07:26:58;;;;;;;1.25;0.45;;;27.20;59.40;;;;;;4158413;28;20045;-66
2022/01/23 07:29:21;;;;;;;0.90;0.60;;;27.20;59.40;;;;;;4154862;28;20039;-67
2022/01/23 07:32:06;;;;;;;1.27;0.63;;;27.20;59.60;;;;;;4140439;28;20049;-68
2022/01/23 07:34:29;;;;;;;1.08;0.68;;;27.20;59.70;;;;;;4157494;28;20088;-66
2022/01/23 07:36:55;;;;;;;1.20;0.57;;;27.20;59.90;;;;;;4158144;28;20053;-68
2022/01/23 07:39:23;;;;;;;2.05;0.85;;;27.20;59.80;;;;;;4157735;28;20282;-68
2022/01/23 07:41:51;;;;;;;3.60;0.80;;;27.20;59.80;;;;;;4158441;28;20038;-68
2022/01/23 07:44:13;;;;;;;3.40;0.82;;;27.20;59.90;;;;;;4156886;28;20037;-68
2022/01/23 07:46:36;;;;;;;0.82;0.65;;;27.20;59.90;;;;;;4156834;28;20037;-68
2022/01/23 07:49:01;;;;;;;1.85;0.68;;;27.20;59.80;;;;;;4158061;28;20119;-68
2022/01/23 07:51:35;;;;;;;1.05;0.57;;;27.10;59.60;;;;;;4154196;28;20479;-68
2022/01/23 07:54:00;;;;;;;2.28;0.60;;;27.10;59.50;;;;;;4158146;28;20107;-67
2022/01/23 07:56:25;;;;;;;2.42;0.75;;;27.10;59.50;;;;;;4159788;28;20080;-66
2022/01/23 07:58:51;;;;;;;0.65;0.50;;;27.10;59.50;;;;;;4159076;28;20148;-68
2022/01/23 08:01:14;;;;;;;1.05;0.50;;;27.10;59.50;;;;;;4150989;28;20450;-67
2022/01/23 08:03:45;;;;;;;1.35;0.90;;;27.10;59.40;;;;;;4137025;28;20121;-67
2022/01/23 08:06:12;;;;;;;0.90;0.57;;;27.10;59.40;;;;;;4154584;28;20052;-68
2022/01/23 08:08:41;;;;;;;1.42;0.70;;;27.10;59.50;;;;;;4155766;28;20128;-68
2022/01/23 08:11:06;;;;;;;0.68;0.50;;;27.10;59.40;;;;;;4147956;28;20045;-67
2022/01/23 08:13:29;;;;;;;0.68;0.50;;;27.00;59.50;;;;;;4145776;28;20549;-70
2022/01/23 08:15:58;;;;;;;1.98;0.88;;;27.10;59.50;;;;;;4149997;28;20411;-68
2022/01/23 08:18:20;;;;;;;2.10;0.47;;;27.10;59.70;;;;;;4152985;28;20056;-66
2022/01/23 08:20:43;;;;;;;1.05;0.50;;;27.00;59.70;;;;;;4152167;28;20041;-67
2022/01/23 08:23:13;;;;;;;2.28;0.68;;;27.00;59.70;;;;;;4152672;28;20079;-69
2022/01/23 08:25:41;;;;;;;1.75;0.65;;;27.00;59.80;;;;;;4138621;28;20180;-69
2022/01/23 08:28:04;;;;;;;2.28;0.88;;;27.00;59.90;;;;;;4153114;28;20080;-70
2022/01/23 08:30:29;;;;;;;1.17;0.60;;;27.00;60.00;;;;;;4145743;28;20033;-70
2022/01/23 08:33:04;;;;;;;2.08;0.70;;;27.00;60.10;;;;;;4153250;28;20037;-69
2022/01/23 08:35:28;;;;;;;0.77;0.57;;;27.00;60.20;;;;;;4138862;28;20113;-68
2022/01/23 08:37:52;;;;;;;1.10;0.77;;;27.00;60.40;;;;;;4154110;28;20072;-70
2022/01/23 08:43:14;;;;;;;3.20;0.95;;;26.90;60.80;;;;;;4142695;28;20037;-68
2022/01/23 08:45:40;;;;;;;2.67;1.33;;;27.00;60.90;;;;;;4150421;28;20049;-67
2022/01/23 08:48:06;;;;;;;2.13;0.60;;;26.90;60.80;;;;;;4153646;28;20041;-68
2022/01/23 08:50:32;;;;;;;0.88;0.68;;;26.90;60.80;;;;;;4154007;28;20120;-68
2022/01/23 08:52:57;;;;;;;1.50;0.90;;;26.90;60.70;;;;;;4151931;28;20179;-68
2022/01/23 08:55:22;;;;;;;1.98;0.80;;;26.90;60.70;;;;;;4152915;28;20773;-67
2022/01/23 08:57:45;;;;;;;2.70;0.80;;;26.90;60.80;;;;;;4154590;28;20041;-67
2022/01/23 09:00:21;;;;;;;2.45;0.95;;;26.90;60.90;;;;;;4132269;28;20542;-70
2022/01/23 09:02:43;;;;;;;3.85;1.10;;;26.90;60.80;;;;;;4151162;28;20115;-67
2022/01/23 09:05:11;;;;;;;2.08;0.90;;;26.90;60.90;;;;;;4137328;28;20089;-69
2022/01/23 09:07:39;;;;;;;3.45;1.17;;;26.90;61.00;;;;;;4135851;28;20029;-65
2022/01/23 09:10:03;;;;;;;1.20;0.70;;;26.90;61.00;;;;;;4152543;28;20400;-78
2022/01/23 09:12:58;;;;;;;0.90;0.52;;;26.90;61.30;;;;;;4149506;28;20045;-75
2022/01/23 09:15:24;;;;;;;2.20;0.93;;;26.90;61.40;;;;;;4148040;28;20037;-77
2022/01/23 09:17:46;;;;;;;7.55;1.30;;;26.80;61.50;;;;;;4147254;28;20479;-79
2022/01/23 09:20:09;;;;;;;2.70;0.88;;;26.90;62.20;;;;;;4149593;28;20112;-79
2022/01/23 09:22:32;;;;;;;2.90;1.08;;;26.90;62.10;;;;;;4150976;28;20044;-75
2022/01/23 09:24:56;;;;;;;3.65;1.02;;;26.90;62.10;;;;;;4144959;28;20048;-75
2022/01/23 09:27:21;;;;;;;;;;;26.80;62.00;;;;;;4153000;28;20115;-77
2022/01/23 09:29:43;;;;;;;2.70;0.98;;;26.80;62.00;;;;;;4154015;28;20434;-74
2022/01/23 09:32:11;;;;;;;3.58;0.90;;;26.80;62.30;;;;;;4153469;28;20048;-78
2022/01/23 09:34:34;;;;;;;3.00;0.70;;;26.80;62.50;;;;;;4153843;28;20069;-77
2022/01/23 09:36:59;;;;;;;3.88;1.17;;;26.90;62.70;;;;;;4147494;28;20710;-78
2022/01/23 09:39:23;;;;;;;3.33;1.35;;;26.90;62.90;;;;;;4151292;28;20040;-81
2022/01/23 09:41:51;;;;;;;3.45;0.80;;;26.90;62.90;;;;;;4153631;28;20363;-79
2022/01/23 09:44:19;;;;;;;7.05;0.85;;;26.90;63.00;;;;;;4154726;28;20387;-76
2022/01/23 09:46:44;;;;;;;4.18;0.70;;;26.90;63.10;;;;;;4152653;28;20068;-71
2022/01/23 09:49:07;;;;;;;3.42;0.73;;;26.90;63.20;;;;;;4142350;28;20693;-71
2022/01/23 09:51:30;;;;;;;3.20;0.80;;;26.90;63.10;;;;;;4156846;28;20044;-71
2022/01/23 09:53:56;;;;;;;2.47;0.73;;;26.90;62.90;;;;;;4151399;28;20053;-71
2022/01/23 09:56:27;;;;;;;2.28;0.68;;;26.90;63.00;;;;;;4154523;28;20056;-70
2022/01/23 09:58:50;;;;;;;3.83;1.15;;;26.90;62.70;;;;;;4155670;28;20856;-70
2022/01/23 10:01:13;;;;;;;5.00;1.10;;;26.90;63.50;;;;;;4157449;28;20038;-69
2022/01/23 10:03:35;;;;;;;3.70;1.00;;;26.90;64.00;;;;;;4159306;28;20366;-68
2022/01/23 10:05:58;;;;;;;2.92;0.80;;;26.90;64.00;;;;;;4153301;28;20275;-71
2022/01/23 10:08:22;;;;;;;4.68;0.80;;;26.90;64.00;;;;;;4155090;28;20151;-70
2022/01/23 10:10:51;;;;;;;4.70;0.80;;;26.90;64.00;;;;;;4142796;28;20077;-70
2022/01/23 10:13:14;;;;;;;5.50;0.90;;;26.90;64.10;;;;;;4142041;28;20088;-71
2022/01/23 10:15:36;;;;;;;3.35;0.80;;;26.90;64.20;;;;;;4139260;28;20095;-71
2022/01/23 10:18:00;;;;;;;5.35;1.23;;;26.90;64.80;;;;;;4131119;28;20057;-69
2022/01/23 10:20:24;;;;;;;2.45;1.00;;;26.90;64.30;;;;;;4137256;28;20042;-71
2022/01/23 10:22:50;;;;;;;2.55;0.90;;;26.90;64.20;;;;;;4136010;28;20061;-71
2022/01/23 10:25:18;;;;;;;5.45;0.80;;;26.90;64.20;;;;;;4134770;28;20061;-70
2022/01/23 10:28:02;;;;;;;5.38;0.80;;;26.90;64.20;;;;;;4134908;28;20045;-71
2022/01/23 10:30:26;;;;;;;4.25;0.80;;;26.90;64.10;;;;;;4136373;28;20048;-73
2022/01/23 10:33:00;;;;;;;3.33;0.82;;;26.90;64.10;;;;;;4136614;28;20045;-75
2022/01/23 10:35:23;;;;;;;5.95;1.00;;;26.90;64.20;;;;;;4126148;28;20042;-75
2022/01/23 10:37:46;;;;;;;14.57;1.40;;;26.90;64.30;;;;;;4135129;28;20171;-70
2022/01/23 10:40:30;;;;;;;1.90;0.90;;;27.00;64.50;;;;;;4140572;28;20033;-70
2022/01/23 10:46:38;;;;;;;3.30;0.77;;;27.00;64.50;;;;;;4136495;28;20052;-71
2022/01/23 10:48:38;;;;;;;3.92;1.10;;;27.00;64.40;;;;;;4138056;28;20049;-78
2022/01/23 10:51:21;;;;;;;2.63;0.63;;;26.90;64.40;;;;;;4135763;28;20057;-74
2022/01/23 10:54:11;;;;;;;5.00;0.73;;;27.00;64.30;;;;;;4123181;28;20511;-76
2022/01/23 10:56:57;;;;;;;4.40;0.85;;;27.00;64.30;;;;;;4127378;28;20124;-76
2022/01/23 10:59:20;;;;;;;8.40;0.90;;;27.00;64.50;;;;;;4136006;28;20117;-73
2022/01/23 11:01:59;;;;;;;2.08;0.73;;;27.00;64.40;;;;;;4139911;28;20087;-76
2022/01/23 11:04:22;;;;;;;5.63;1.00;;;27.00;64.40;;;;;;4136694;28;20480;-77
2022/01/23 11:06:59;;;;;;;5.35;0.80;;;27.00;64.30;;;;;;4142261;28;20057;-74
2022/01/23 11:09:31;;;;;;;18.10;1.95;;;27.00;64.30;;;;;;4129567;28;20447;-74
2022/01/23 11:12:01;;;;;;;5.82;1.02;;;27.00;64.50;;;;;;4158398;28;20046;-76
2022/01/23 11:17:23;;;;;;;5.72;0.85;;;26.90;64.50;;;;;;4168785;28;20049;-74
2022/01/23 11:19:46;;;;;;;7.38;1.02;;;27.00;64.50;;;;;;4155053;28;20041;-76
2022/01/23 11:22:17;;;;;;;9.68;1.38;;;26.90;64.40;;;;;;4152551;28;20618;-73
2022/01/23 11:24:44;;;;;;;7.03;0.82;;;27.00;64.50;;;;;;4153841;28;20077;-77
2022/01/23 11:27:08;;;;;;;5.30;0.80;;;26.90;64.50;;;;;;4150397;28;20082;-74
2022/01/23 11:29:31;;;;;;;1.98;0.80;;;27.00;64.50;;;;;;4157355;28;20049;-76
2022/01/23 11:31:53;;;;;;;;;;;26.90;64.40;;;;;;4152632;28;20479;-75
2022/01/23 11:34:20;;;;;;;5.80;0.70;;;26.90;64.40;;;;;;4154240;28;19968;-76
2022/01/23 11:36:43;;;;;;;3.42;0.73;;;26.90;64.40;;;;;;4150083;28;20049;-73
2022/01/23 11:39:17;;;;;;;3.35;0.70;;;26.90;64.30;;;;;;4151228;28;20428;-74
2022/01/23 11:55:28;;;;;;;2.50;0.40;;;26.90;64.40;;;;;;4153432;28;20498;-75
2022/01/23 11:57:50;;;;;;;5.35;0.68;;;26.90;64.60;;;;;;4155301;28;20073;-74
2022/01/23 12:00:31;;;;;;;8.13;0.88;;;26.90;64.60;;;;;;4151987;28;20447;-72
2022/01/23 12:03:17;;;;;;;9.52;0.93;;;26.80;64.40;;;;;;4140878;28;20046;-73
2022/01/23 12:05:43;;;;;;;2.20;0.57;;;26.90;65.10;;;;;;4154750;28;20095;-75
2022/01/23 12:08:34;;;;;;;6.93;0.70;;;26.90;64.40;;;;;;4151826;28;20139;-75
2022/01/23 12:11:47;;;;;;;5.03;0.90;;;26.90;64.40;;;;;;4151772;28;20061;-75
2022/01/23 12:16:57;;;;;;;5.38;0.65;;;26.80;64.30;;;;;;4151988;28;20117;-75
2022/01/23 12:19:24;;;;;;;3.78;0.90;;;26.90;64.50;;;;;;4154907;28;20044;-72
2022/01/23 12:21:49;;;;;;;1.95;0.80;;;26.80;64.20;;;;;;4148970;28;20138;-74
2022/01/23 12:24:14;;;;;;;5.90;0.70;;;26.80;64.30;;;;;;4149787;28;20168;-78
2022/01/23 12:26:37;;;;;;;2.95;0.60;;;26.80;64.30;;;;;;4151740;28;20038;-73
2022/01/23 12:29:14;;;;;;;2.78;0.80;;;26.80;64.20;;;;;;4136915;28;20136;-74
2022/01/23 12:31:36;;;;;;;4.25;0.68;;;26.80;64.30;;;;;;4153923;28;20124;-77
2022/01/23 12:34:01;;;;;;;11.20;1.35;;;26.80;64.40;;;;;;4149627;28;20042;-74
2022/01/23 12:36:31;;;;;;;2.25;0.80;;;26.80;64.50;;;;;;4158304;28;20358;-74
2022/01/23 12:39:07;;;;;;;7.97;1.40;;;26.80;64.50;;;;;;4152989;28;20033;-74
2022/01/23 12:41:38;;;;;;;10.10;1.50;;;26.80;65.20;;;;;;4155455;28;20044;-75
2022/01/23 12:44:09;;;;;;;4.35;0.98;;;26.80;64.70;;;;;;4155731;28;20029;-75
2022/01/23 12:46:35;;;;;;;4.93;0.90;;;26.70;64.60;;;;;;4152363;28;20056;-79
2022/01/23 12:49:00;;;;;;;4.18;1.08;;;26.70;64.60;;;;;;4150475;28;20038;-77
2022/01/23 12:51:22;;;;;;;5.03;1.25;;;26.80;64.70;;;;;;4152060;28;20045;-79
2022/01/23 12:53:47;;;;;;;8.07;0.80;;;26.70;64.50;;;;;;4149286;28;20407;-76
2022/01/23 12:56:13;;;;;;;4.10;0.90;;;26.70;64.40;;;;;;4152873;28;20068;-80
2022/01/23 12:58:36;;;;;;;1.40;0.40;;;26.70;64.50;;;;;;4153713;28;20041;-76
2022/01/23 13:00:59;;;;;;;1.42;0.57;;;26.70;64.60;;;;;;4151458;28;20129;-75
2022/01/23 13:03:24;;;;;;;2.78;0.93;;;26.70;64.60;;;;;;4150555;28;20048;-76
2022/01/23 13:05:47;;;;;;;2.65;0.60;;;26.70;64.70;;;;;;4154726;28;20045;-81
2022/01/23 13:08:32;;;;;;;0.73;0.47;;;26.70;64.80;;;;;;4149128;28;20033;-80
2022/01/23 13:11:20;;;;;;;5.13;0.60;;;26.70;64.70;;;;;;4150233;28;20053;-76
2022/01/23 13:13:48;;;;;;;2.30;0.60;;;26.60;64.60;;;;;;4152180;28;20549;-74
2022/01/23 13:18:45;;;;;;;0.68;0.40;;;26.60;64.70;;;;;;4151229;28;19913;-77
2022/01/23 13:32:50;;;;;;;3.13;0.65;;;26.60;64.90;;;;;;4156083;28;20447;-78
2022/01/23 13:35:07;;;;;;;0.90;0.52;;;26.60;65.00;;;;;;4157619;28;20463;-76
2022/01/23 13:37:33;;;;;;;1.45;0.55;;;26.60;64.90;;;;;;4155522;28;20182;-76
2022/01/23 13:40:04;;;;;;;2.70;0.65;;;26.50;64.90;;;;;;4160108;28;20038;-71
2022/01/23 13:47:56;;;;;;;3.55;0.60;;;26.50;64.80;;;;;;4160392;28;20037;-72
2022/01/23 13:51:37;;;;;;;0.70;0.40;;;26.50;64.70;;;;;;4162052;28;20045;-74
2022/01/23 14:02:20;;;;;;;1.40;0.40;;;26.40;64.80;;;;;;4160353;28;20146;-74
2022/01/23 14:04:48;;;;;;;0.70;0.40;;;26.40;64.90;;;;;;4161623;28;20207;-74
2022/01/23 14:07:11;;;;;;;0.75;0.50;;;26.40;65.00;;;;;;4161851;28;20041;-76
2022/01/23 14:09:46;;;;;;;3.83;0.70;;;26.40;65.00;;;;;;4162083;28;20037;-75
2022/01/23 14:12:15;;;;;;;3.38;0.55;;;26.30;65.00;;;;;;4163008;28;20686;-76
2022/01/23 14:14:54;;;;;;;2.97;0.63;;;26.30;65.30;;;;;;4161651;28;20418;-75
2022/01/23 14:17:17;;;;;;;2.35;0.60;;;26.30;65.40;;;;;;4159125;28;20530;-75
2022/01/23 14:19:40;;;;;;;2.53;0.50;;;26.30;65.40;;;;;;4158239;28;20037;-76
2022/01/23 14:22:02;;;;;;;1.55;0.70;;;26.30;65.30;;;;;;4165023;28;20040;-75
2022/01/23 14:24:26;;;;;;;1.75;0.50;;;26.30;65.20;;;;;;4165124;28;20041;-75
2022/01/23 14:27:01;;;;;;;0.98;0.43;;;26.30;65.20;;;;;;4164677;28;20045;-75
2022/01/23 14:29:24;;;;;;;0.70;0.40;;;26.30;65.20;;;;;;4164750;28;20165;-75
2022/01/23 14:32:02;;;;;;;0.57;0.40;;;26.30;65.20;;;;;;4162856;28;20111;-76
2022/01/23 14:34:26;;;;;;;1.25;0.57;;;26.30;65.10;;;;;;4161743;28;20045;-76
2022/01/23 14:36:58;;;;;;;0.75;0.40;;;26.30;65.10;;;;;;4161000;28;20045;-74
2022/01/23 14:39:24;;;;;;;0.50;0.20;;;26.30;65.30;;;;;;4160657;28;20037;-76
2022/01/23 14:41:47;;;;;;;2.00;0.43;;;26.30;65.30;;;;;;4159556;28;20171;-77
2022/01/23 14:44:24;;;;;;;0.65;0.43;;;26.30;65.90;;;;;;4159883;28;20034;-75
2022/01/23 14:46:48;;;;;;;0.43;0.40;;;26.30;65.30;;;;;;4142630;28;20037;-75
2022/01/23 14:49:20;;;;;;;2.28;0.52;;;26.30;65.40;;;;;;4154756;28;20478;-74
2022/01/23 14:51:43;;;;;;;1.63;0.70;;;26.30;65.30;;;;;;4161768;28;20049;-75
2022/01/23 14:54:05;;;;;;;1.15;0.40;;;26.30;65.30;;;;;;4154285;28;20461;-75
2022/01/23 14:56:29;;;;;;;2.55;0.40;;;26.30;65.30;;;;;;4159794;28;20478;-75
2022/01/23 14:58:52;;;;;;;0.57;0.35;;;26.30;65.30;;;;;;4160060;28;20041;-76
2022/01/23 15:01:17;;;;;;;1.17;0.40;;;26.30;65.30;;;;;;4158329;28;20133;-76
2022/01/23 15:03:44;;;;;;;1.23;0.50;;;26.30;65.30;;;;;;4159927;28;20038;-76
2022/01/23 15:06:06;;;;;;;0.65;0.40;;;26.30;65.30;;;;;;4159896;28;20153;-76
2022/01/23 15:08:30;;;;;;;0.30;0.30;;;26.20;65.20;;;;;;4160478;28;20044;-76
2022/01/23 15:10:54;;;;;;;;;;;26.30;65.40;;;;;;4156523;28;20068;-77
2022/01/23 15:13:19;;;;;;;1.33;0.55;;;26.20;65.20;;;;;;4158324;28;19913;-76
2022/01/23 15:15:42;;;;;;;0.40;0.40;;;26.20;65.20;;;;;;4159597;28;20037;-76
2022/01/23 15:18:05;;;;;;;2.50;0.60;;;26.20;65.20;;;;;;4159806;28;20049;-78
2022/01/23 15:20:28;;;;;;;1.70;0.52;;;26.20;65.20;;;;;;4160181;28;20045;-76
2022/01/23 15:22:50;;;;;;;3.28;0.60;;;26.20;65.40;;;;;;4160001;28;20139;-77
2022/01/23 15:25:16;;;;;;;3.33;0.50;;;26.20;65.50;;;;;;4159709;28;20034;-76
2022/01/23 15:27:42;;;;;;;1.55;0.40;;;26.20;65.50;;;;;;4156228;28;20029;-77
2022/01/23 15:30:06;;;;;;;2.05;0.52;;;26.20;65.40;;;;;;4160496;28;20060;-75
2022/01/23 15:32:29;;;;;;;1.27;0.50;;;26.20;65.40;;;;;;4158337;28;20546;-76
2022/01/23 15:34:52;;;;;;;0.65;0.50;;;26.20;65.50;;;;;;4158917;28;20106;-78
2022/01/23 15:37:14;;;;;;;0.30;0.30;;;26.20;65.50;;;;;;4157351;28;20092;-78
2022/01/23 15:39:38;;;;;;;2.83;0.60;;;26.20;65.40;;;;;;4143835;28;20058;-80
2022/01/23 15:42:01;;;;;;;1.48;0.73;;;26.10;65.40;;;;;;4158857;28;20073;-79
2022/01/23 15:44:24;;;;;;;0.95;0.50;;;26.10;65.40;;;;;;4159176;28;20121;-78
2022/01/23 15:46:47;;;;;;;0.60;0.43;;;26.20;65.50;;;;;;4158769;28;20076;-77
2022/01/23 15:49:10;;;;;;;0.57;0.40;;;26.10;65.40;;;;;;4153933;28;20037;-79
2022/01/23 15:51:33;;;;;;;1.13;0.50;;;26.10;65.40;;;;;;4156412;28;20041;-78